Time;durP1;ratioP1;P1;durP2;ratioP2;P2;SDS_P1;SDS_P2;PMS_P1;PMS_P2;Temp;Humidity;BMP_temperature;BMP_pressure;BME280_temperature;BME280_humidity;BME280_pressure;Samples;Min_cycle;Max_cycle;Signal;HPM_P1;HPM_P2
2022/04/01 00:01:16;;;;;;;1.58;1.00;;;16.40;53.30;;;;;;5045157;28;20101;-68
2022/04/01 00:03:42;;;;;;;2.25;1.15;;;16.40;53.30;;;;;;5047349;28;20461;-67
2022/04/01 00:06:07;;;;;;;2.40;1.00;;;16.40;53.30;;;;;;5046020;28;20036;-67
2022/04/01 00:08:33;;;;;;;2.90;0.95;;;16.40;53.30;;;;;;5048426;28;20104;-68
2022/04/01 00:10:59;;;;;;;3.17;1.25;;;16.40;53.30;;;;;;5046016;28;20148;-68
2022/04/01 00:13:25;;;;;;;3.70;1.33;;;16.40;53.40;;;;;;5048406;28;20025;-68
2022/04/01 00:15:50;;;;;;;1.40;0.90;;;16.30;53.40;;;;;;5046267;28;20051;-68
2022/04/01 00:18:16;;;;;;;4.75;1.25;;;16.30;53.40;;;;;;5047610;28;20025;-68
2022/04/01 00:20:42;;;;;;;2.83;1.10;;;16.30;53.50;;;;;;5048862;28;20032;-67
2022/04/01 00:23:07;;;;;;;2.40;1.10;;;16.30;53.50;;;;;;5048228;28;20056;-68
2022/04/01 00:25:33;;;;;;;2.92;1.10;;;16.30;53.50;;;;;;5045528;28;20045;-68
2022/04/01 00:27:59;;;;;;;3.60;1.10;;;16.30;53.60;;;;;;5046724;28;20025;-67
2022/04/01 00:30:24;;;;;;;1.75;0.88;;;16.30;53.70;;;;;;5046394;28;20033;-68
2022/04/01 00:32:50;;;;;;;2.35;1.00;;;16.30;53.80;;;;;;5046127;28;20031;-67
2022/04/01 00:35:16;;;;;;;3.58;1.20;;;16.30;53.90;;;;;;5047363;28;20032;-68
2022/04/01 00:37:41;;;;;;;2.10;1.10;;;16.20;53.70;;;;;;5046559;28;20048;-68
2022/04/01 00:40:12;;;;;;;2.75;0.98;;;16.30;53.90;;;;;;5046348;28;20036;-67
2022/04/01 00:42:38;;;;;;;1.85;0.90;;;16.20;53.90;;;;;;5046703;28;20036;-67
2022/04/01 00:45:04;;;;;;;2.22;1.00;;;16.20;53.90;;;;;;5047872;28;20044;-68
2022/04/01 00:47:30;;;;;;;1.67;0.90;;;16.20;53.90;;;;;;5047553;28;20895;-68
2022/04/01 00:49:56;;;;;;;2.25;0.98;;;16.20;54.00;;;;;;5047126;28;20037;-68
2022/04/01 00:52:24;;;;;;;2.80;1.10;;;16.20;54.00;;;;;;5046397;28;20565;-68
2022/04/01 00:54:51;;;;;;;2.35;0.90;;;16.20;54.00;;;;;;5046866;28;20056;-68
2022/04/01 00:57:18;;;;;;;3.92;1.05;;;16.20;54.00;;;;;;5046325;28;20037;-68
2022/04/01 00:59:44;;;;;;;3.53;1.15;;;16.20;54.00;;;;;;5048585;28;20580;-68
2022/04/01 01:02:10;;;;;;;3.10;0.90;;;16.20;54.00;;;;;;5047044;28;20052;-67
2022/04/01 01:04:36;;;;;;;3.40;1.08;;;16.20;54.10;;;;;;5046387;28;20032;-68
2022/04/01 01:07:02;;;;;;;2.17;0.90;;;16.20;54.00;;;;;;5036027;28;20021;-68
2022/04/01 01:09:28;;;;;;;3.70;1.20;;;16.20;54.20;;;;;;5062458;28;20046;-67
2022/04/01 01:11:54;;;;;;;2.20;1.00;;;16.10;54.10;;;;;;5047776;28;20043;-67
2022/04/01 01:14:28;;;;;;;2.80;1.00;;;16.10;54.20;;;;;;5043769;28;20033;-68
2022/04/01 01:16:54;;;;;;;2.50;1.00;;;16.10;54.10;;;;;;5042903;28;20106;-68
2022/04/01 01:19:20;;;;;;;1.83;0.77;;;16.10;54.10;;;;;;5045170;28;20508;-67
2022/04/01 01:21:48;;;;;;;3.13;1.00;;;16.10;54.20;;;;;;5045971;28;20098;-68
2022/04/01 01:24:15;;;;;;;1.85;0.90;;;16.10;54.20;;;;;;5045356;28;20516;-67
2022/04/01 01:26:41;;;;;;;2.97;1.10;;;16.10;55.20;;;;;;5046639;28;20063;-67
2022/04/01 01:29:06;;;;;;;2.55;0.90;;;16.10;54.10;;;;;;5046259;28;20465;-67
2022/04/01 01:31:32;;;;;;;4.45;1.02;;;16.10;54.10;;;;;;5037944;28;20035;-67
2022/04/01 01:33:58;;;;;;;2.22;0.80;;;16.10;54.10;;;;;;5046739;28;20032;-67
2022/04/01 01:36:25;;;;;;;2.55;0.90;;;16.10;54.20;;;;;;5046576;28;20025;-67
2022/04/01 01:38:51;;;;;;;1.90;0.85;;;16.00;54.10;;;;;;5039720;28;20528;-68
2022/04/01 01:41:17;;;;;;;3.92;1.08;;;16.10;54.20;;;;;;5045821;28;20021;-68
2022/04/01 01:43:42;;;;;;;2.85;0.93;;;16.00;54.10;;;;;;5045246;28;20021;-68
2022/04/01 01:46:08;;;;;;;0.90;0.75;;;16.00;54.10;;;;;;5045895;28;20078;-67
2022/04/01 01:48:34;;;;;;;3.20;0.98;;;16.00;54.10;;;;;;5045070;28;20029;-68
2022/04/01 01:56:29;;;;;;;2.70;1.00;;;16.00;54.20;;;;;;5047527;28;20548;-67
2022/04/01 01:58:54;;;;;;;2.42;0.82;;;16.00;54.20;;;;;;5043738;28;20048;-67
2022/04/01 02:01:21;;;;;;;1.70;0.93;;;16.00;54.20;;;;;;5045570;28;20520;-67
2022/04/01 02:03:47;;;;;;;2.40;0.80;;;15.90;54.20;;;;;;5061312;28;20416;-68
2022/04/01 02:06:13;;;;;;;2.17;0.90;;;15.90;54.20;;;;;;5045318;28;20049;-67
2022/04/01 02:08:40;;;;;;;2.58;0.90;;;15.90;54.20;;;;;;5047014;28;20083;-67
2022/04/01 02:11:07;;;;;;;2.50;0.70;;;15.90;54.20;;;;;;5041273;28;20029;-67
2022/04/01 02:13:33;;;;;;;2.35;0.90;;;15.90;54.20;;;;;;5044828;28;20078;-67
2022/04/01 02:15:59;;;;;;;1.95;0.95;;;15.90;54.30;;;;;;5044026;28;20033;-67
2022/04/01 02:18:25;;;;;;;1.95;0.60;;;15.90;54.30;;;;;;5046308;28;20044;-68
2022/04/01 02:20:50;;;;;;;2.63;0.85;;;15.90;54.30;;;;;;5042969;28;20024;-67
2022/04/01 02:23:19;;;;;;;1.42;0.73;;;15.80;54.20;;;;;;5046036;28;20056;-68
2022/04/01 02:25:44;;;;;;;2.78;0.80;;;15.90;54.30;;;;;;5046095;28;20087;-68
2022/04/01 02:28:11;;;;;;;1.70;0.80;;;15.90;54.30;;;;;;5042968;28;20315;-67
2022/04/01 02:30:37;;;;;;;1.38;0.77;;;15.90;54.40;;;;;;5064780;28;20025;-66
2022/04/01 02:33:03;;;;;;;1.42;0.80;;;15.80;54.30;;;;;;5050368;28;20082;-68
2022/04/01 02:35:29;;;;;;;3.72;0.90;;;15.80;54.40;;;;;;5050643;28;20064;-67
2022/04/01 02:37:55;;;;;;;2.45;0.80;;;15.80;54.40;;;;;;5049204;28;20136;-67
2022/04/01 02:40:21;;;;;;;2.75;0.80;;;15.80;54.40;;;;;;5049778;28;20040;-68
2022/04/01 02:42:47;;;;;;;1.25;0.75;;;15.80;54.40;;;;;;5049103;28;20025;-67
2022/04/01 02:45:13;;;;;;;2.15;0.98;;;15.70;54.40;;;;;;5044985;28;20044;-68
2022/04/01 02:47:39;;;;;;;2.85;0.88;;;15.80;54.50;;;;;;5050959;28;20044;-68
2022/04/01 02:50:06;;;;;;;3.83;0.98;;;15.70;54.40;;;;;;5048831;28;20028;-67
2022/04/01 02:52:32;;;;;;;2.25;0.75;;;15.70;54.40;;;;;;5042986;28;20128;-68
2022/04/01 02:54:57;;;;;;;3.85;0.80;;;15.70;54.50;;;;;;5045513;28;20108;-68
2022/04/01 02:57:23;;;;;;;2.80;0.90;;;15.70;54.50;;;;;;5049650;28;20032;-68
2022/04/01 02:59:48;;;;;;;2.03;0.80;;;15.70;54.50;;;;;;5050552;28;20041;-68
2022/04/01 03:02:15;;;;;;;2.28;0.80;;;15.70;54.50;;;;;;5047461;28;20029;-67
2022/04/01 03:04:40;;;;;;;1.42;0.60;;;15.70;54.50;;;;;;5049532;28;20390;-67
2022/04/01 03:07:06;;;;;;;3.45;0.75;;;15.70;54.50;;;;;;5048516;28;20029;-67
2022/04/01 03:09:33;;;;;;;2.53;0.82;;;15.70;54.60;;;;;;5048945;28;20032;-67
2022/04/01 03:12:00;;;;;;;2.80;0.82;;;15.70;55.00;;;;;;5050448;28;20425;-69
2022/04/01 03:14:26;;;;;;;1.65;0.70;;;15.60;54.60;;;;;;5049225;28;20051;-69
2022/04/01 03:16:52;;;;;;;1.50;0.80;;;15.60;54.60;;;;;;5048355;28;20036;-69
2022/04/01 03:19:18;;;;;;;2.22;0.80;;;15.60;54.60;;;;;;5047401;28;20040;-69
2022/04/01 03:21:45;;;;;;;2.30;0.88;;;15.60;54.70;;;;;;5044565;28;20392;-69
2022/04/01 03:24:10;;;;;;;1.90;0.80;;;15.60;54.70;;;;;;5049176;28;20029;-69
2022/04/01 03:26:36;;;;;;;2.65;0.80;;;15.60;54.70;;;;;;5045903;28;20041;-68
2022/04/01 03:29:02;;;;;;;1.67;0.73;;;15.60;54.70;;;;;;5047663;28;20747;-68
2022/04/01 03:31:28;;;;;;;2.15;0.80;;;15.60;54.70;;;;;;5048042;28;20041;-68
2022/04/01 03:33:54;;;;;;;2.67;0.95;;;15.60;54.70;;;;;;5049039;28;20103;-69
2022/04/01 03:36:19;;;;;;;1.80;0.80;;;15.60;54.70;;;;;;5046881;28;20040;-69
2022/04/01 03:38:46;;;;;;;2.78;0.70;;;15.50;54.60;;;;;;5049994;28;20048;-68
2022/04/01 03:41:12;;;;;;;2.20;0.65;;;15.50;54.60;;;;;;5040443;28;20584;-69
2022/04/01 03:43:37;;;;;;;3.92;0.88;;;15.50;54.70;;;;;;5048346;28;20036;-69
2022/04/01 03:46:06;;;;;;;2.63;0.70;;;15.50;54.70;;;;;;5046736;28;20033;-68
2022/04/01 03:48:39;;;;;;;2.40;0.70;;;15.50;54.70;;;;;;5048393;28;20020;-69
2022/04/01 03:51:05;;;;;;;1.65;0.73;;;15.50;54.70;;;;;;5046462;28;20033;-69
2022/04/01 03:53:32;;;;;;;2.00;0.80;;;15.50;54.80;;;;;;5047823;28;20037;-69
2022/04/01 03:55:58;;;;;;;1.52;0.70;;;15.50;54.70;;;;;;5043886;28;20049;-68
2022/04/01 03:58:31;;;;;;;2.70;0.70;;;15.50;54.70;;;;;;5045558;28;20024;-69
2022/04/01 04:00:58;;;;;;;2.70;0.85;;;15.50;54.80;;;;;;5043069;28;20393;-69
2022/04/01 04:03:24;;;;;;;1.65;0.70;;;15.40;54.80;;;;;;5047701;28;20037;-68
2022/04/01 04:05:49;;;;;;;1.80;0.80;;;15.40;54.70;;;;;;5045657;28;20041;-69
2022/04/01 04:08:19;;;;;;;1.85;0.80;;;15.50;54.80;;;;;;5046711;28;20028;-69
2022/04/01 04:10:46;;;;;;;2.30;0.65;;;15.40;54.80;;;;;;5047281;28;20052;-68
2022/04/01 04:13:12;;;;;;;2.65;0.80;;;15.40;54.80;;;;;;5047430;28;20037;-69
2022/04/01 04:16:00;;;;;;;2.05;0.80;;;15.40;54.80;;;;;;5062407;28;20033;-69
2022/04/01 04:18:42;;;;;;;1.58;0.60;;;15.40;54.90;;;;;;5045867;28;20054;-69
2022/04/01 04:21:32;;;;;;;1.63;0.57;;;15.40;55.00;;;;;;5043369;28;20036;-69
2022/04/01 04:23:59;;;;;;;1.90;0.60;;;15.40;54.90;;;;;;5060306;28;20037;-68
2022/04/01 04:26:32;;;;;;;2.30;0.70;;;15.40;54.90;;;;;;5047799;28;20044;-69
2022/04/01 04:29:04;;;;;;;1.98;0.70;;;15.40;54.90;;;;;;5047683;28;20032;-68
2022/04/01 04:31:30;;;;;;;1.55;0.60;;;15.40;54.90;;;;;;5039536;28;20032;-68
2022/04/01 04:33:56;;;;;;;1.48;0.60;;;15.40;55.00;;;;;;5047272;28;20035;-68
2022/04/01 04:36:34;;;;;;;1.63;0.60;;;15.30;54.90;;;;;;5044434;28;20039;-68
2022/04/01 04:39:05;;;;;;;2.08;0.70;;;15.40;55.00;;;;;;5043614;28;20048;-68
2022/04/01 04:41:32;;;;;;;2.53;0.77;;;15.30;54.90;;;;;;5044633;28;20028;-68
2022/04/01 04:43:58;;;;;;;4.65;0.90;;;15.30;54.90;;;;;;5044846;28;20029;-68
2022/04/01 04:46:23;;;;;;;1.40;0.60;;;15.30;55.00;;;;;;5040185;28;20449;-68
2022/04/01 04:48:49;;;;;;;2.85;0.60;;;15.30;55.00;;;;;;5024476;28;20109;-68
2022/04/01 04:51:15;;;;;;;2.88;0.70;;;15.30;55.10;;;;;;5044540;28;20123;-68
2022/04/01 04:53:40;;;;;;;3.05;0.82;;;15.30;55.00;;;;;;5025135;28;20044;-68
2022/04/01 04:56:07;;;;;;;3.70;0.73;;;15.30;55.00;;;;;;5041259;28;20037;-68
2022/04/01 04:58:40;;;;;;;1.38;0.60;;;15.30;55.20;;;;;;5042251;28;20436;-68
2022/04/01 05:01:21;;;;;;;2.80;1.00;;;15.30;55.00;;;;;;5045267;28;20044;-68
2022/04/01 05:03:58;;;;;;;2.78;0.65;;;15.30;55.60;;;;;;5043630;28;20165;-68
2022/04/01 05:06:29;;;;;;;3.90;0.70;;;15.30;55.30;;;;;;5041223;28;20044;-68
2022/04/01 05:08:58;;;;;;;4.63;1.00;;;15.30;55.30;;;;;;5043109;28;20036;-68
2022/04/01 05:11:35;;;;;;;7.30;1.20;;;15.30;55.70;;;;;;5029252;28;20037;-69
2022/04/01 05:14:05;;;;;;;2.75;0.88;;;15.30;55.60;;;;;;5039827;28;20164;-69
2022/04/01 05:16:57;;;;;;;7.10;1.10;;;15.30;55.70;;;;;;5042762;28;20396;-69
2022/04/01 05:19:31;;;;;;;2.60;0.73;;;15.30;55.90;;;;;;5039498;28;20038;-69
2022/04/01 05:22:08;;;;;;;8.00;1.00;;;15.30;56.00;;;;;;5045600;28;20028;-70
2022/04/01 05:24:37;;;;;;;3.88;0.90;;;15.30;56.00;;;;;;5045914;28;20059;-70
2022/04/01 05:27:05;;;;;;;7.63;1.10;;;15.30;56.00;;;;;;5047260;28;20033;-69
2022/04/01 05:29:42;;;;;;;7.40;1.50;;;15.30;56.70;;;;;;5044950;28;20335;-70
2022/04/01 05:32:10;;;;;;;4.88;1.20;;;15.30;59.30;;;;;;5041653;28;20052;-70
2022/04/01 05:34:49;;;;;;;6.28;1.30;;;15.30;60.50;;;;;;5038549;28;20353;-70
2022/04/01 05:37:15;;;;;;;7.68;1.10;;;15.30;60.40;;;;;;5043059;28;20059;-71
2022/04/01 05:39:46;;;;;;;8.10;1.20;;;15.30;59.10;;;;;;5045914;28;20032;-68
2022/04/01 05:42:12;;;;;;;9.40;1.30;;;15.30;59.20;;;;;;5045169;28;20033;-69
2022/04/01 05:44:38;;;;;;;13.50;1.40;;;15.30;58.80;;;;;;5046187;28;20404;-69
2022/04/01 05:47:04;;;;;;;7.55;1.30;;;15.30;58.80;;;;;;5046225;28;20033;-69
2022/04/01 05:49:30;;;;;;;10.82;1.20;;;15.30;58.80;;;;;;5045883;28;20029;-68
2022/04/01 05:51:55;;;;;;;12.80;1.15;;;15.20;58.80;;;;;;5044372;28;20550;-69
2022/04/01 05:54:22;;;;;;;5.05;1.17;;;15.20;58.80;;;;;;5046576;28;20105;-69
2022/04/01 05:56:48;;;;;;;9.98;1.42;;;15.20;58.80;;;;;;5047582;28;20060;-68
2022/04/01 05:59:20;;;;;;;4.00;1.02;;;15.20;58.80;;;;;;5049986;28;20113;-69
2022/04/01 06:02:04;;;;;;;10.57;1.13;;;15.10;58.70;;;;;;5049407;28;20485;-69
2022/04/01 06:04:53;;;;;;;8.85;1.20;;;15.20;58.80;;;;;;5051867;28;20455;-68
2022/04/01 06:07:53;;;;;;;5.70;1.08;;;15.10;58.70;;;;;;5043197;28;20033;-68
2022/04/01 06:10:43;;;;;;;4.93;1.20;;;15.10;58.70;;;;;;5049436;28;20032;-68
2022/04/01 06:13:16;;;;;;;7.28;1.10;;;15.10;58.80;;;;;;5040244;28;20075;-69
2022/04/01 06:15:54;;;;;;;4.45;1.02;;;15.10;58.70;;;;;;5039910;28;20025;-68
2022/04/01 06:18:37;;;;;;;5.40;0.80;;;15.10;58.70;;;;;;5045032;28;20044;-68
2022/04/01 06:21:04;;;;;;;5.10;0.70;;;15.10;58.70;;;;;;5044047;28;20108;-69
2022/04/01 06:23:38;;;;;;;4.70;1.05;;;15.10;58.70;;;;;;5046452;28;20592;-69
2022/04/01 06:26:04;;;;;;;4.60;0.80;;;15.00;58.60;;;;;;5045139;28;20090;-69
2022/04/01 06:28:36;;;;;;;6.35;1.20;;;15.00;58.60;;;;;;5045420;28;20033;-69
2022/04/01 06:31:06;;;;;;;6.57;1.10;;;15.00;58.50;;;;;;5046035;28;20028;-68
2022/04/01 06:33:55;;;;;;;5.75;1.10;;;15.00;58.50;;;;;;5045866;28;20036;-69
2022/04/01 06:36:41;;;;;;;6.05;0.80;;;15.00;58.50;;;;;;5044326;28;20429;-69
2022/04/01 06:39:10;;;;;;;;;;;15.00;58.50;;;;;;5043333;28;20053;-69
2022/04/01 06:41:44;;;;;;;3.88;0.85;;;15.00;58.40;;;;;;5045285;28;19931;-69
2022/04/01 06:44:10;;;;;;;3.42;0.98;;;14.90;58.30;;;;;;5046253;28;20027;-68
2022/04/01 06:46:35;;;;;;;5.25;1.00;;;14.90;58.30;;;;;;5045414;28;20120;-68
2022/04/01 06:49:01;;;;;;;4.75;0.88;;;14.90;58.30;;;;;;5045852;28;20021;-69
2022/04/01 06:51:27;;;;;;;3.33;1.00;;;14.90;58.30;;;;;;5045515;28;20075;-69
2022/04/01 06:53:53;;;;;;;2.40;0.77;;;14.90;58.20;;;;;;5046115;28;20044;-69
2022/04/01 06:56:18;;;;;;;4.57;1.10;;;14.90;58.10;;;;;;5044729;28;20091;-68
2022/04/01 06:58:45;;;;;;;2.88;0.85;;;14.90;58.10;;;;;;5046017;28;20075;-68
2022/04/01 07:01:14;;;;;;;5.43;1.05;;;14.90;58.20;;;;;;5044298;28;20029;-69
2022/04/01 07:03:39;;;;;;;2.50;0.85;;;14.90;58.10;;;;;;5044850;28;20112;-69
2022/04/01 07:06:06;;;;;;;4.10;0.90;;;14.90;58.10;;;;;;5045636;28;20608;-68
2022/04/01 07:08:32;;;;;;;4.70;0.95;;;14.90;58.00;;;;;;5046600;28;20124;-68
2022/04/01 07:10:58;;;;;;;3.80;1.02;;;14.90;58.00;;;;;;5043454;28;20108;-68
2022/04/01 07:13:23;;;;;;;4.45;1.05;;;14.90;58.00;;;;;;5039884;28;20064;-68
2022/04/01 07:15:50;;;;;;;4.43;0.80;;;14.90;58.00;;;;;;5046737;28;20025;-69
2022/04/01 07:18:18;;;;;;;3.92;0.90;;;14.80;57.90;;;;;;5049432;28;20040;-68
2022/04/01 07:20:44;;;;;;;2.80;1.00;;;14.80;57.90;;;;;;5049279;28;20025;-68
2022/04/01 07:23:09;;;;;;;2.58;0.63;;;14.80;57.90;;;;;;5047604;28;20029;-68
2022/04/01 07:25:35;;;;;;;2.53;0.80;;;14.80;57.90;;;;;;5048367;28;20232;-69
2022/04/01 07:28:01;;;;;;;3.00;0.85;;;14.80;57.90;;;;;;5047708;28;20025;-68
2022/04/01 07:30:26;;;;;;;3.25;0.93;;;14.80;57.90;;;;;;5048786;28;20033;-68
2022/04/01 07:32:54;;;;;;;3.28;1.00;;;14.80;57.80;;;;;;5049438;28;20025;-69
2022/04/01 07:35:20;;;;;;;2.22;0.82;;;14.80;57.70;;;;;;5049716;28;20078;-68
2022/04/01 07:37:46;;;;;;;3.53;0.82;;;14.80;57.70;;;;;;5048947;28;20041;-68
2022/04/01 07:40:13;;;;;;;2.90;0.73;;;14.80;57.70;;;;;;5049344;28;20163;-69
2022/04/01 07:42:39;;;;;;;3.22;0.82;;;14.80;57.70;;;;;;5046781;28;20021;-68
2022/04/01 07:45:06;;;;;;;2.85;0.80;;;14.80;57.70;;;;;;5049016;28;20074;-69
2022/04/01 07:47:34;;;;;;;1.95;0.68;;;14.80;57.60;;;;;;5049959;28;20028;-68
2022/04/01 07:50:04;;;;;;;2.25;0.77;;;14.80;57.60;;;;;;5048247;28;20047;-68
2022/04/01 07:52:30;;;;;;;2.30;0.75;;;14.80;57.60;;;;;;5048095;28;20033;-69
2022/04/01 07:54:56;;;;;;;3.25;0.90;;;14.80;57.50;;;;;;5048640;28;20417;-69
2022/04/01 07:57:21;;;;;;;3.65;1.00;;;14.80;57.50;;;;;;5048637;28;20032;-68
2022/04/01 07:59:47;;;;;;;4.07;0.82;;;14.80;57.60;;;;;;5049793;28;20075;-68
2022/04/01 08:02:13;;;;;;;3.10;0.70;;;14.80;57.50;;;;;;5047041;28;20477;-68
2022/04/01 08:04:39;;;;;;;3.67;0.88;;;14.80;57.40;;;;;;5048001;28;20486;-68
2022/04/01 08:07:05;;;;;;;5.35;1.13;;;14.80;57.50;;;;;;5047619;28;20128;-69
2022/04/01 08:09:30;;;;;;;6.40;0.80;;;14.70;57.40;;;;;;5048117;28;20021;-68
2022/04/01 08:11:56;;;;;;;3.25;0.80;;;14.80;58.50;;;;;;5048034;28;20559;-69
2022/04/01 08:14:22;;;;;;;4.53;0.90;;;14.80;57.40;;;;;;5049064;28;20032;-69
2022/04/01 08:16:47;;;;;;;2.22;0.70;;;14.80;57.40;;;;;;5047545;28;20033;-69
2022/04/01 08:19:13;;;;;;;2.97;0.70;;;14.80;57.30;;;;;;5047671;28;20032;-69
2022/04/01 08:21:39;;;;;;;3.25;0.80;;;14.70;57.30;;;;;;5048154;28;20039;-68
2022/04/01 08:24:05;;;;;;;1.85;0.88;;;14.80;57.30;;;;;;5048931;28;20099;-69
2022/04/01 08:26:31;;;;;;;2.42;0.57;;;14.80;57.30;;;;;;5046116;28;20062;-68
2022/04/01 08:28:56;;;;;;;2.20;0.60;;;14.80;57.30;;;;;;5048036;28;20087;-69
2022/04/01 08:31:22;;;;;;;2.55;0.82;;;14.80;57.20;;;;;;5047900;28;20107;-68
2022/04/01 08:33:48;;;;;;;3.13;0.80;;;14.80;57.20;;;;;;5046118;28;20017;-69
2022/04/01 08:36:14;;;;;;;3.55;0.80;;;14.80;57.10;;;;;;5047525;28;20102;-68
2022/04/01 08:38:40;;;;;;;1.88;0.70;;;14.90;57.10;;;;;;5048938;28;20045;-68
2022/04/01 08:41:07;;;;;;;3.70;0.90;;;14.80;57.10;;;;;;5048498;28;20123;-68
2022/04/01 08:43:37;;;;;;;2.47;0.50;;;14.80;57.00;;;;;;5047033;28;20029;-69
2022/04/01 08:46:07;;;;;;;2.42;0.57;;;14.80;57.00;;;;;;5042531;28;20044;-68
2022/04/01 08:48:33;;;;;;;4.32;0.70;;;14.80;57.00;;;;;;5047312;28;20052;-69
2022/04/01 08:50:58;;;;;;;2.95;0.68;;;14.90;57.00;;;;;;5047696;28;20028;-69
2022/04/01 08:53:24;;;;;;;3.42;0.65;;;14.80;56.90;;;;;;5048593;28;20021;-69
2022/04/01 08:55:51;;;;;;;2.60;0.70;;;14.80;56.90;;;;;;5047109;28;20025;-69
2022/04/01 08:58:19;;;;;;;1.35;0.50;;;14.80;56.90;;;;;;5047503;28;20505;-69
2022/04/01 09:00:47;;;;;;;2.15;0.80;;;14.90;56.90;;;;;;5047182;28;20098;-68
2022/04/01 09:03:14;;;;;;;3.10;0.65;;;14.80;56.90;;;;;;5046895;28;20475;-68
2022/04/01 09:05:45;;;;;;;3.67;0.52;;;14.80;56.90;;;;;;5048194;28;20494;-69
2022/04/01 09:08:10;;;;;;;2.15;0.60;;;14.80;56.90;;;;;;5045830;28;20060;-68
2022/04/01 09:11:08;;;;;;;2.97;0.80;;;14.80;56.90;;;;;;5047059;28;20420;-69
2022/04/01 09:13:43;;;;;;;1.33;0.57;;;14.80;56.80;;;;;;5031359;28;20040;-68
2022/04/01 09:16:31;;;;;;;2.75;0.90;;;14.80;56.80;;;;;;5032271;28;20079;-69
2022/04/01 09:18:58;;;;;;;2.45;0.60;;;14.80;56.80;;;;;;5028768;28;20088;-69
2022/04/01 09:21:29;;;;;;;2.58;0.80;;;14.80;56.80;;;;;;5031396;28;20041;-68
2022/04/01 09:23:54;;;;;;;2.17;0.90;;;14.90;57.00;;;;;;5028913;28;20078;-69
2022/04/01 09:26:37;;;;;;;2.05;0.80;;;14.80;56.80;;;;;;5032271;28;20422;-68
2022/04/01 09:29:04;;;;;;;1.35;0.60;;;14.80;56.80;;;;;;5030879;28;20033;-68
2022/04/01 09:31:40;;;;;;;3.33;0.70;;;14.80;56.90;;;;;;5026919;28;20029;-69
2022/04/01 09:34:11;;;;;;;1.88;0.52;;;14.80;56.90;;;;;;5026177;28;20052;-68
2022/04/01 09:36:37;;;;;;;3.63;0.80;;;14.80;56.90;;;;;;5037566;28;20040;-69
2022/04/01 09:39:13;;;;;;;1.77;0.70;;;14.80;56.90;;;;;;5027939;28;20081;-69
2022/04/01 09:41:46;;;;;;;1.05;0.55;;;14.80;57.00;;;;;;5032573;28;20041;-69
2022/04/01 09:44:17;;;;;;;2.90;0.80;;;14.80;56.90;;;;;;5027903;28;20124;-69
2022/04/01 09:46:50;;;;;;;2.53;0.80;;;14.80;56.90;;;;;;5012059;28;20044;-69
2022/04/01 09:49:39;;;;;;;2.33;0.70;;;14.70;56.90;;;;;;5036105;28;20098;-69
2022/04/01 09:52:28;;;;;;;2.53;0.70;;;14.80;57.00;;;;;;5041077;28;20045;-69
2022/04/01 09:54:57;;;;;;;1.65;0.70;;;14.80;56.80;;;;;;5056890;28;20041;-69
2022/04/01 09:57:23;;;;;;;1.88;0.60;;;14.80;56.80;;;;;;5046037;28;20076;-68
2022/04/01 09:59:50;;;;;;;2.72;0.90;;;14.80;56.80;;;;;;5048852;28;20029;-68
2022/04/01 10:02:16;;;;;;;1.67;0.60;;;14.80;56.80;;;;;;5050059;28;20072;-68
2022/04/01 10:04:41;;;;;;;1.83;0.50;;;14.80;56.80;;;;;;5048983;28;20074;-68
2022/04/01 10:07:07;;;;;;;1.00;0.40;;;14.80;56.80;;;;;;5045815;28;20037;-69
2022/04/01 10:09:34;;;;;;;2.58;0.60;;;14.80;56.80;;;;;;5046829;28;20051;-68
2022/04/01 10:12:03;;;;;;;2.17;0.75;;;14.80;56.80;;;;;;5046725;28;20065;-68
2022/04/01 10:14:29;;;;;;;3.03;0.68;;;14.80;56.80;;;;;;5050931;28;20032;-68
2022/04/01 10:16:55;;;;;;;2.38;0.77;;;14.80;56.80;;;;;;5043320;28;20126;-69
2022/04/01 10:19:41;;;;;;;1.73;0.57;;;14.80;56.80;;;;;;5050421;28;20031;-68
2022/04/01 10:22:06;;;;;;;;;;;14.80;56.80;;;;;;5049484;28;20056;-68
2022/04/01 10:24:40;;;;;;;1.98;0.57;;;14.80;56.80;;;;;;5048261;28;19909;-69
2022/04/01 10:27:08;;;;;;;2.60;0.60;;;14.80;56.70;;;;;;5046021;28;20040;-68
2022/04/01 10:29:35;;;;;;;1.38;0.65;;;14.80;56.80;;;;;;5050765;28;20021;-68
2022/04/01 10:32:26;;;;;;;1.98;0.50;;;14.80;56.70;;;;;;5049949;28;20040;-68
2022/04/01 10:34:53;;;;;;;2.35;0.70;;;14.80;56.80;;;;;;5048905;28;20759;-70
2022/04/01 10:37:21;;;;;;;2.88;0.80;;;14.90;57.10;;;;;;5041467;28;20052;-68
2022/04/01 10:39:51;;;;;;;2.25;0.60;;;14.90;57.30;;;;;;5043650;28;20475;-68
2022/04/01 10:42:17;;;;;;;2.10;0.60;;;14.90;57.30;;;;;;5049267;28;20067;-68
2022/04/01 10:44:53;;;;;;;2.90;0.75;;;14.90;57.60;;;;;;5045948;28;20064;-68
2022/04/01 10:47:20;;;;;;;2.08;0.70;;;14.90;57.70;;;;;;5049776;28;20112;-66
2022/04/01 10:52:30;;;;;;;3.72;0.90;;;14.90;60.10;;;;;;5050516;28;20099;-69
2022/04/01 10:55:08;;;;;;;6.90;0.98;;;15.00;59.70;;;;;;5053258;28;20705;-69
2022/04/01 10:57:54;;;;;;;3.33;0.95;;;15.00;59.90;;;;;;5045057;28;20523;-68
2022/04/01 11:00:19;;;;;;;4.68;1.02;;;15.00;59.80;;;;;;5048398;28;20033;-68
2022/04/01 11:02:46;;;;;;;6.13;1.33;;;15.10;59.90;;;;;;5055444;28;20044;-68
2022/04/01 11:05:34;;;;;;;4.45;0.90;;;15.10;59.80;;;;;;5049141;28;20063;-69
2022/04/01 11:08:21;;;;;;;2.65;0.82;;;15.10;59.70;;;;;;5054310;28;20029;-68
2022/04/01 11:11:09;;;;;;;7.03;0.88;;;15.20;59.70;;;;;;5049191;28;20420;-68
2022/04/01 11:13:35;;;;;;;2.60;0.70;;;15.10;59.50;;;;;;5049573;28;20037;-68
2022/04/01 11:16:14;;;;;;;3.85;0.88;;;15.20;59.50;;;;;;5048838;28;20024;-68
2022/04/01 11:19:14;;;;;;;2.88;0.80;;;15.20;59.40;;;;;;5048914;28;20025;-68
2022/04/01 11:21:40;;;;;;;4.00;0.77;;;15.20;59.30;;;;;;5051502;28;20040;-68
2022/04/01 11:24:37;;;;;;;3.92;0.82;;;15.20;59.30;;;;;;5055066;28;20025;-68
2022/04/01 11:27:26;;;;;;;2.45;0.90;;;15.10;59.10;;;;;;5047410;28;20045;-68
2022/04/01 11:30:14;;;;;;;3.30;0.80;;;15.20;59.10;;;;;;5042107;28;20642;-68
2022/04/01 11:32:41;;;;;;;4.53;0.93;;;15.20;58.90;;;;;;5049892;28;20041;-68
2022/04/01 11:35:07;;;;;;;3.17;0.90;;;15.20;58.80;;;;;;5049127;28;20485;-68
2022/04/01 11:37:37;;;;;;;4.60;1.10;;;15.30;58.80;;;;;;5048107;28;20391;-68
2022/04/01 11:40:09;;;;;;;4.55;0.80;;;15.30;58.80;;;;;;5047913;28;20059;-68
2022/04/01 11:42:56;;;;;;;3.75;0.82;;;15.30;58.80;;;;;;5060509;28;20064;-68
2022/04/01 11:45:22;;;;;;;3.33;0.80;;;15.30;58.80;;;;;;5047101;28;20113;-67
2022/04/01 11:47:48;;;;;;;2.40;0.70;;;15.40;58.60;;;;;;5049133;28;20108;-68
2022/04/01 11:50:15;;;;;;;2.25;0.90;;;15.30;58.60;;;;;;5046874;28;20474;-68
2022/04/01 11:52:45;;;;;;;2.92;0.85;;;15.30;58.40;;;;;;5048680;28;20025;-68
2022/04/01 11:55:17;;;;;;;4.85;0.80;;;15.40;58.30;;;;;;5048514;28;20040;-68
2022/04/01 11:57:42;;;;;;;2.83;0.85;;;15.40;58.30;;;;;;5046186;28;20100;-68
2022/04/01 12:00:20;;;;;;;2.67;0.70;;;15.40;58.20;;;;;;5044891;28;20021;-67
2022/04/01 12:02:49;;;;;;;2.22;0.82;;;15.50;58.00;;;;;;5060704;28;20028;-66
2022/04/01 12:05:15;;;;;;;2.53;0.70;;;15.50;57.90;;;;;;5050021;28;20063;-67
2022/04/01 12:10:26;;;;;;;2.03;0.70;;;15.50;57.50;;;;;;5045055;28;20082;-67
2022/04/01 12:12:53;;;;;;;3.17;0.80;;;15.50;57.50;;;;;;5046167;28;20688;-67
2022/04/01 12:15:32;;;;;;;4.40;0.80;;;15.60;57.30;;;;;;5048365;28;20397;-67
2022/04/01 12:17:58;;;;;;;3.55;0.90;;;15.60;57.30;;;;;;5046905;28;20086;-67
2022/04/01 12:20:26;;;;;;;2.33;0.90;;;15.70;57.30;;;;;;5046834;28;20406;-68
2022/04/01 12:22:52;;;;;;;5.63;1.15;;;15.70;57.10;;;;;;5044997;28;20117;-66
2022/04/01 12:25:19;;;;;;;4.60;1.15;;;15.80;57.00;;;;;;5046312;28;20037;-67
2022/04/01 12:28:04;;;;;;;3.22;0.82;;;15.70;56.80;;;;;;5048364;28;20033;-67
2022/04/01 12:30:35;;;;;;;3.55;0.70;;;15.70;56.70;;;;;;5045497;28;20459;-67
2022/04/01 12:33:02;;;;;;;3.42;1.10;;;15.70;56.80;;;;;;5047590;28;20142;-67
2022/04/01 12:35:27;;;;;;;3.42;1.00;;;15.80;56.60;;;;;;5048113;28;20102;-67
2022/04/01 12:38:07;;;;;;;6.30;0.85;;;15.80;56.60;;;;;;5044903;28;20663;-68
2022/04/01 12:40:43;;;;;;;3.90;0.80;;;15.90;56.60;;;;;;5047684;28;20032;-68
2022/04/01 12:43:26;;;;;;;3.72;0.77;;;15.90;56.40;;;;;;5046973;28;20025;-67
2022/04/01 12:46:08;;;;;;;1.15;0.50;;;15.90;56.40;;;;;;5042242;28;20148;-67
2022/04/01 12:48:51;;;;;;;2.08;0.70;;;15.90;56.20;;;;;;5040827;28;20103;-67
2022/04/01 12:51:28;;;;;;;2.92;0.95;;;15.90;56.10;;;;;;5048031;28;20553;-67
2022/04/01 12:54:04;;;;;;;3.05;0.75;;;15.90;56.10;;;;;;5043105;28;20037;-67
2022/04/01 12:56:33;;;;;;;2.30;0.77;;;15.90;55.90;;;;;;5048905;28;20078;-67
2022/04/01 12:59:10;;;;;;;5.13;0.90;;;15.90;55.70;;;;;;5047692;28;20409;-67
2022/04/01 13:01:40;;;;;;;3.10;0.80;;;15.90;55.70;;;;;;5047244;28;20067;-67
2022/04/01 13:04:07;;;;;;;0.90;0.40;;;15.90;55.70;;;;;;5045763;28;20013;-67
2022/04/01 13:06:33;;;;;;;5.13;0.88;;;16.00;55.70;;;;;;5045743;28;20562;-66
2022/04/01 13:09:04;;;;;;;3.78;0.80;;;16.10;55.50;;;;;;5047012;28;20128;-66
2022/04/01 13:11:44;;;;;;;4.43;0.73;;;16.10;55.30;;;;;;5047622;28;20375;-67